Terminal Aerodrome Forecast
Issued by NWS Charleston, WV

Current Version | Previous Version | Graphics & Text | Print | Product List | Glossary On
Versions: 1 2 3 4 5 6 7 8 9 10 11 12 13 14 15 16 17 18 19 20 21 22
000
FTUS41 KRLX 251141
TAFPKB
TAF
KPKB 251141Z 2512/2612 20005KT P6SM SCT040 BKN090
     FM251700 21006KT P6SM OVC020
     FM252000 21007KT P6SM OVC015
     FM252200 22006KT 5SM SHRA OVC020
     FM260300 24008KT 4SM SHRA OVC015=

USA.gov is the U.S. government's official web portal to all federal, state and local government web resources and services.